createdAt,value
2019-02-28T16:08:51.194Z,10.70
2019-02-28T16:09:54.139Z,10.70
2019-02-28T16:10:58.190Z,10.30
2019-02-28T16:11:58.625Z,10.30
2019-02-28T16:12:59.144Z,10.30
2019-02-28T16:14:00.529Z,9.60
2019-02-28T16:15:01.658Z,9.90
2019-02-28T16:16:02.090Z,9.80
2019-02-28T16:17:03.522Z,10.90
2019-02-28T16:18:04.093Z,11.20
2019-02-28T16:19:04.519Z,10.90
2019-02-28T16:20:05.062Z,10.70
2019-02-28T16:21:07.369Z,10.00
2019-02-28T16:22:10.674Z,10.30
2019-02-28T16:23:11.104Z,10.00
2019-02-28T16:24:11.614Z,9.00
2019-02-28T16:25:14.886Z,9.20
2019-02-28T16:26:24.743Z,8.50
2019-02-28T16:27:25.170Z,9.00
2019-02-28T16:28:33.359Z,9.40
2019-02-28T16:29:33.823Z,9.50
2019-02-28T16:30:34.423Z,8.80
2019-02-28T16:31:34.850Z,8.50
2019-02-28T16:32:36.344Z,9.20
2019-02-28T16:33:36.772Z,8.30
2019-02-28T16:34:38.799Z,8.60
2019-02-28T16:35:50.053Z,8.10
2019-02-28T16:36:51.532Z,7.70
2019-02-28T16:37:58.826Z,8.00
2019-02-28T16:38:59.253Z,7.30
2019-02-28T16:40:16.225Z,8.00
2019-02-28T16:41:16.676Z,7.70
2019-02-28T16:42:17.565Z,7.40
2019-02-28T16:43:20.783Z,6.40
2019-02-28T16:44:22.190Z,6.60
2019-02-28T16:45:22.644Z,7.00
2019-02-28T16:46:23.138Z,7.20
2019-02-28T16:47:24.464Z,7.20
2019-02-28T16:48:36.637Z,7.30
2019-02-28T16:49:37.674Z,7.10
2019-02-28T16:50:38.245Z,6.70
2019-02-28T16:51:38.718Z,6.60
2019-02-28T16:52:46.746Z,6.20
2019-02-28T16:53:47.972Z,6.40
2019-02-28T16:55:10.223Z,6.70
2019-02-28T16:56:10.673Z,7.00
2019-02-28T16:57:12.243Z,6.50
2019-02-28T16:58:13.499Z,6.80
2019-02-28T16:59:15.026Z,6.40
2019-02-28T17:00:15.459Z,6.40
2019-02-28T17:01:17.576Z,5.70
2019-02-28T17:02:20.951Z,5.60
2019-02-28T17:03:22.430Z,6.10
2019-02-28T17:04:22.860Z,6.30
2019-02-28T17:05:27.012Z,6.10
2019-02-28T17:06:28.742Z,6.30
2019-02-28T17:07:29.218Z,5.80
2019-02-28T17:08:29.646Z,6.10
2019-02-28T17:09:31.179Z,5.90
2019-02-28T17:10:31.699Z,6.40
2019-02-28T17:11:32.251Z,6.40
2019-02-28T17:12:32.692Z,6.30
2019-02-28T17:13:35.558Z,6.10
2019-02-28T17:14:39.563Z,6.10
2019-02-28T17:15:40.005Z,6.20
2019-02-28T17:16:40.551Z,5.90
2019-02-28T17:17:43.493Z,6.30
2019-02-28T17:18:47.424Z,6.20
2019-02-28T17:19:47.879Z,5.80
2019-02-28T17:20:48.404Z,5.70
2019-02-28T17:21:52.395Z,5.90
2019-02-28T17:23:01.389Z,5.30
2019-02-28T17:24:02.574Z,5.70
2019-02-28T17:25:05.074Z,6.20
2019-02-28T17:26:05.529Z,6.90
2019-02-28T17:27:06.425Z,6.30
2019-02-28T17:28:07.813Z,6.60
2019-02-28T17:29:08.339Z,6.60
2019-02-28T17:30:08.766Z,7.40
2019-02-28T17:31:11.522Z,7.10
2019-02-28T17:32:12.962Z,7.30
2019-02-28T17:33:13.391Z,7.50
2019-02-28T17:34:13.835Z,7.00
2019-02-28T17:35:14.292Z,7.20
2019-02-28T17:36:14.771Z,7.50
2019-02-28T17:37:15.215Z,6.30
2019-02-28T17:38:17.714Z,6.80
2019-02-28T17:39:18.156Z,7.10
2019-02-28T17:40:18.643Z,6.90
2019-02-28T17:41:19.110Z,7.30
2019-02-28T17:42:19.591Z,7.30
2019-02-28T17:43:24.136Z,7.60
2019-02-28T17:44:24.823Z,7.70
2019-02-28T17:45:25.258Z,7.20
2019-02-28T17:46:26.100Z,7.20
2019-02-28T17:47:26.541Z,7.00
2019-02-28T17:48:26.974Z,7.30
2019-02-28T17:49:27.415Z,7.50
2019-02-28T17:50:27.943Z,7.30
2019-02-28T17:51:28.393Z,7.10
2019-02-28T17:52:30.440Z,6.70
2019-02-28T17:53:33.994Z,7.40
2019-02-28T17:54:36.227Z,6.70
2019-02-28T17:55:36.877Z,6.80
2019-02-28T17:56:37.563Z,7.50
2019-02-28T17:57:41.689Z,7.60
2019-02-28T17:58:42.188Z,7.70
2019-02-28T17:59:42.625Z,7.80
2019-02-28T18:00:43.055Z,6.90
2019-02-28T18:01:43.607Z,7.60
2019-02-28T18:02:44.038Z,7.40
2019-02-28T18:03:44.985Z,7.00
2019-02-28T18:04:48.624Z,7.90
2019-02-28T18:05:50.223Z,8.10
2019-02-28T18:06:50.721Z,7.70
2019-02-28T18:07:51.194Z,7.30
2019-02-28T18:08:51.621Z,7.10
2019-02-28T18:09:52.124Z,7.10
2019-02-28T18:10:52.560Z,7.40
2019-02-28T18:11:53.096Z,8.10
2019-02-28T18:12:53.525Z,7.60
2019-02-28T18:13:55.410Z,7.70
2019-02-28T18:14:56.557Z,7.40
2019-02-28T18:15:57.025Z,7.40
2019-02-28T18:16:58.626Z,7.10
2019-02-28T18:18:02.036Z,7.70
2019-02-28T18:19:03.189Z,7.40
2019-02-28T18:20:03.669Z,7.40
2019-02-28T18:21:04.477Z,7.90
2019-02-28T18:22:06.168Z,7.60
2019-02-28T18:23:06.600Z,8.20
2019-02-28T18:24:07.074Z,7.60
2019-02-28T18:25:07.538Z,8.10
2019-02-28T18:26:08.004Z,7.50
2019-02-28T18:27:11.697Z,7.70
2019-02-28T18:28:12.846Z,7.50
2019-02-28T18:29:13.350Z,7.60
2019-02-28T18:30:13.776Z,8.90
2019-02-28T18:31:19.056Z,8.30
2019-02-28T18:32:22.762Z,8.30
2019-02-28T18:33:23.207Z,8.60
2019-02-28T18:34:23.639Z,8.90
2019-02-28T18:35:24.147Z,9.20
2019-02-28T18:36:24.625Z,8.60
2019-02-28T18:37:25.440Z,9.00
2019-02-28T18:38:25.914Z,9.30
2019-02-28T18:39:26.535Z,8.70
2019-02-28T18:40:26.977Z,8.30
2019-02-28T18:41:27.566Z,7.80
2019-02-28T18:42:28.015Z,8.80
2019-02-28T18:43:28.513Z,8.60
2019-02-28T18:44:28.939Z,8.80
2019-02-28T18:45:29.547Z,9.20
2019-02-28T18:47:56.673Z,7.90
2019-02-28T18:50:52.813Z,4.30
2019-02-28T18:52:33.586Z,2.40
2019-02-28T18:53:34.575Z,2.20
2019-02-28T18:54:35.179Z,1.70
2019-02-28T18:55:36.044Z,1.70
2019-02-28T18:56:36.599Z,1.20
2019-02-28T18:57:37.228Z,1.30
2019-02-28T18:58:37.838Z,1.00
2019-02-28T18:59:38.478Z,0.90
2019-02-28T19:00:39.113Z,0.90
2019-02-28T19:04:52.991Z,5.80
2019-02-28T19:05:53.424Z,4.60
2019-02-28T19:06:53.868Z,3.60
2019-02-28T19:07:54.338Z,3.60
2019-02-28T19:08:54.793Z,4.80
2019-02-28T19:09:55.220Z,5.60
2019-02-28T19:10:55.724Z,6.30
2019-02-28T19:11:56.166Z,6.60
2019-02-28T19:12:56.693Z,6.20
2019-02-28T19:13:57.124Z,4.60
2019-02-28T19:14:57.613Z,4.50
2019-02-28T19:15:58.052Z,4.80
2019-02-28T19:17:00.581Z,5.00
2019-02-28T19:18:01.029Z,6.90
2019-02-28T19:25:53.559Z,4.50
2019-02-28T19:27:02.009Z,4.90
2019-02-28T19:28:02.468Z,5.90
2019-02-28T19:29:03.962Z,4.80
2019-02-28T19:30:04.396Z,5.80
2019-02-28T19:31:04.828Z,4.40
2019-02-28T19:32:34.074Z,5.50
2019-02-28T19:33:34.522Z,5.10
2019-02-28T19:38:22.907Z,5.00
2019-02-28T19:39:23.346Z,3.40
2019-02-28T19:43:01.968Z,3.20
2019-02-28T19:44:23.406Z,3.70
2019-02-28T19:45:23.841Z,4.00
2019-02-28T19:46:46.375Z,3.60
2019-02-28T19:47:47.636Z,3.00
2019-02-28T19:50:58.735Z,5.20
2019-02-28T19:54:46.387Z,5.70
2019-02-28T19:55:56.653Z,5.20
2019-02-28T19:56:57.247Z,4.50
2019-02-28T19:58:16.288Z,4.40
2019-02-28T19:59:16.728Z,4.50
2019-02-28T20:00:25.783Z,4.40
2019-02-28T20:01:26.236Z,3.20
2019-02-28T20:06:04.582Z,2.70
2019-02-28T20:07:27.061Z,4.10
2019-02-28T20:08:27.516Z,4.40
2019-02-28T20:09:29.021Z,3.40
2019-02-28T20:10:29.457Z,3.80
2019-02-28T20:14:29.122Z,4.00
2019-02-28T20:17:39.171Z,2.60
2019-02-28T20:19:08.126Z,2.90
2019-02-28T20:20:08.566Z,3.70
2019-02-28T20:22:26.008Z,3.80
2019-02-28T20:25:40.547Z,3.80
2019-02-28T20:26:55.965Z,3.80
2019-02-28T20:27:56.427Z,3.10
2019-02-28T20:29:13.494Z,2.70
2019-02-28T20:30:13.921Z,3.40
2019-02-28T20:31:41.975Z,3.30
2019-02-28T20:32:42.407Z,4.00
2019-02-28T20:34:10.996Z,3.10
2019-02-28T20:35:11.421Z,2.80
2019-02-28T20:38:27.454Z,3.10
2019-02-28T20:39:27.947Z,2.90
2019-02-28T20:42:05.870Z,4.20
2019-02-28T20:43:07.362Z,3.20
2019-02-28T20:44:07.833Z,3.20
2019-02-28T20:45:22.911Z,5.00
2019-02-28T20:46:23.342Z,5.30
2019-02-28T20:47:25.804Z,5.60
2019-02-28T20:48:26.249Z,5.60
2019-02-28T20:49:41.368Z,5.50
2019-02-28T20:50:41.797Z,5.20
2019-02-28T20:51:55.056Z,5.60
2019-02-28T20:52:56.296Z,5.40
2019-02-28T20:54:32.941Z,4.80
2019-02-28T20:55:33.375Z,4.80
2019-02-28T20:57:58.809Z,4.60
2019-02-28T21:01:11.902Z,5.60
2019-02-28T21:02:12.500Z,5.20
2019-02-28T21:03:12.934Z,5.30
2019-02-28T21:04:13.383Z,5.30
2019-02-28T21:05:13.823Z,5.20
2019-02-28T21:06:14.370Z,5.20
2019-02-28T21:07:14.813Z,5.00
2019-02-28T21:08:30.253Z,4.60
2019-02-28T21:09:30.700Z,5.40
2019-02-28T21:10:31.207Z,5.50
2019-02-28T21:11:31.636Z,5.40
2019-02-28T21:12:32.079Z,4.60
2019-02-28T21:13:32.521Z,4.70
2019-02-28T21:14:33.055Z,5.10
2019-02-28T21:15:33.487Z,4.50
2019-02-28T21:16:33.910Z,4.20
2019-02-28T21:17:34.408Z,4.70
2019-02-28T21:18:34.845Z,4.80
2019-02-28T21:19:35.553Z,4.70
2019-02-28T21:20:35.979Z,4.70
2019-02-28T21:21:36.410Z,4.10
2019-02-28T21:22:36.848Z,4.00
2019-02-28T21:23:37.300Z,5.00
2019-02-28T21:24:37.841Z,4.20
2019-02-28T21:25:38.270Z,4.40
2019-02-28T21:26:38.700Z,4.50
2019-02-28T21:27:39.189Z,3.80
2019-02-28T21:28:39.632Z,4.30
2019-02-28T21:29:40.055Z,4.40
2019-02-28T21:30:40.487Z,4.70
2019-02-28T21:31:40.918Z,5.10
2019-02-28T21:32:41.355Z,4.40
2019-02-28T21:33:41.836Z,3.60
2019-02-28T21:34:42.269Z,3.80
2019-02-28T21:35:42.708Z,3.60
2019-02-28T21:36:43.140Z,4.50
2019-02-28T21:37:43.577Z,4.60
2019-02-28T21:38:44.033Z,4.90
2019-02-28T21:39:44.460Z,4.50
2019-02-28T21:40:44.892Z,4.60
2019-02-28T21:41:45.352Z,5.20
2019-02-28T21:42:45.807Z,5.40
2019-02-28T21:43:49.798Z,5.80
2019-02-28T21:44:50.238Z,5.70
2019-02-28T21:45:50.660Z,4.40
2019-02-28T21:46:51.106Z,4.30
2019-02-28T21:47:51.551Z,4.90
2019-02-28T21:48:52.081Z,5.40
2019-02-28T21:49:52.980Z,4.70
2019-02-28T22:05:01.864Z,4.60
2019-02-28T22:06:02.321Z,5.00
2019-02-28T22:07:02.751Z,4.80
2019-02-28T22:08:03.178Z,4.30
2019-02-28T22:09:03.626Z,3.60
2019-02-28T22:10:04.071Z,3.70
2019-02-28T22:11:04.625Z,3.20
2019-02-28T22:12:05.066Z,3.80
2019-02-28T22:13:05.507Z,4.50
2019-02-28T22:14:05.961Z,4.60
2019-02-28T22:15:06.492Z,6.50
2019-02-28T22:16:06.916Z,6.50
2019-02-28T22:25:35.501Z,8.30
2019-02-28T22:26:35.933Z,8.20
2019-02-28T22:27:36.399Z,8.30
2019-02-28T22:28:36.831Z,8.20
2019-02-28T22:29:37.366Z,8.00
2019-02-28T22:30:37.791Z,8.40
2019-02-28T22:31:38.272Z,7.80
2019-02-28T22:32:38.711Z,7.50
2019-02-28T22:33:39.207Z,7.90
2019-02-28T22:34:39.655Z,7.30
2019-02-28T22:35:40.079Z,8.50
2019-02-28T22:36:40.507Z,8.10
2019-02-28T22:37:40.974Z,7.40
2019-02-28T22:38:41.409Z,7.50
2019-02-28T22:39:41.959Z,8.40
2019-02-28T22:40:42.387Z,7.40
2019-02-28T22:41:42.850Z,6.20
2019-02-28T22:42:43.285Z,5.50
2019-02-28T22:43:43.785Z,5.10
2019-02-28T22:44:44.255Z,6.00
2019-02-28T22:46:01.603Z,4.90
2019-02-28T22:47:02.034Z,6.00
2019-02-28T22:49:18.524Z,4.60
2019-02-28T22:55:37.053Z,6.00
2019-02-28T22:56:37.480Z,5.50
2019-02-28T22:57:37.941Z,5.90
2019-02-28T22:58:38.369Z,5.40
2019-02-28T22:59:38.805Z,5.40
2019-02-28T23:00:39.296Z,5.30
2019-02-28T23:01:39.728Z,6.90
2019-02-28T23:02:40.167Z,6.60
2019-02-28T23:03:40.647Z,6.00
2019-02-28T23:04:41.110Z,5.40
2019-02-28T23:05:41.534Z,5.10
2019-02-28T23:06:43.022Z,5.10
2019-02-28T23:07:43.449Z,5.50
2019-02-28T23:08:43.936Z,5.70
2019-02-28T23:09:44.375Z,5.80
2019-02-28T23:10:44.870Z,5.90
2019-02-28T23:11:45.301Z,6.00
2019-02-28T23:12:45.808Z,6.00
2019-02-28T23:13:46.235Z,7.30
2019-02-28T23:14:46.776Z,7.10
2019-02-28T23:15:47.206Z,5.90
2019-02-28T23:16:47.676Z,5.10
2019-02-28T23:17:48.105Z,5.60
2019-02-28T23:18:48.611Z,6.00
2019-02-28T23:19:49.061Z,6.40
2019-02-28T23:20:51.608Z,6.10
2019-02-28T23:21:52.055Z,6.40
2019-02-28T23:23:01.502Z,5.10
2019-02-28T23:24:01.939Z,6.40
2019-02-28T23:25:02.394Z,5.10
2019-02-28T23:26:23.847Z,4.70
2019-02-28T23:27:24.282Z,5.30
2019-02-28T23:39:12.941Z,5.00
2019-02-28T23:40:13.387Z,3.40
2019-02-28T23:41:13.848Z,5.20
2019-02-28T23:42:14.276Z,4.80
2019-02-28T23:43:23.484Z,4.30
2019-02-28T23:44:23.908Z,5.70
2019-02-28T23:45:25.446Z,5.60
2019-02-28T23:46:25.894Z,5.80
2019-02-28T23:47:26.321Z,5.90
2019-02-28T23:49:50.823Z,5.30
2019-02-28T23:50:54.481Z,5.60
2019-02-28T23:51:54.917Z,5.40
2019-02-28T23:55:34.117Z,5.50
2019-02-28T23:56:34.569Z,5.20
2019-02-28T23:57:35.105Z,5.00
2019-02-28T23:58:35.540Z,4.40
2019-02-28T23:59:36.039Z,5.90
